createdAt,value
2022-11-20T15:20:43.387Z,100523.53
2022-11-20T15:23:47.463Z,100512.09
2022-11-20T15:26:51.069Z,100516.69
2022-11-20T15:29:55.393Z,100520.28
2022-11-20T15:32:59.093Z,100513.50
2022-11-20T15:36:04.185Z,100511.31
2022-11-20T15:39:09.121Z,100512.19
2022-11-20T15:42:12.758Z,100518.28
2022-11-20T15:45:17.003Z,100515.38
2022-11-20T15:48:22.588Z,100510.84
2022-11-20T15:51:31.109Z,100505.75
2022-11-20T15:54:34.767Z,100511.34
2022-11-20T15:57:38.332Z,100506.09
2022-11-20T16:00:41.901Z,100498.63
2022-11-20T16:03:45.526Z,100503.03
2022-11-20T16:06:50.531Z,100498.97
2022-11-20T16:09:55.239Z,100492.72
2022-11-20T16:13:16.621Z,100487.81
2022-11-20T16:16:23.884Z,100483.38
2022-11-20T16:19:27.481Z,100486.75
2022-11-20T16:22:32.441Z,100480.69
2022-11-20T16:25:36.106Z,100489.13
2022-11-20T16:28:39.817Z,100480.34
2022-11-20T16:31:43.467Z,100469.31
2022-11-20T16:34:47.008Z,100475.56
2022-11-20T16:37:52.502Z,100468.13
2022-11-20T16:41:02.303Z,100463.72
2022-11-20T16:44:10.096Z,100469.16
2022-11-20T16:47:13.952Z,100476.63
2022-11-20T16:50:17.605Z,100467.09
2022-11-20T16:53:23.907Z,100465.72
2022-11-20T16:56:28.510Z,100460.25
2022-11-20T16:59:32.154Z,100450.25
2022-11-20T17:02:37.852Z,100454.16
2022-11-20T17:05:41.550Z,100458.75
2022-11-20T17:08:46.867Z,100456.88
2022-11-20T17:11:50.714Z,100450.97
2022-11-20T17:14:54.291Z,100447.44
2022-11-20T17:17:57.916Z,100458.63
2022-11-20T17:21:04.701Z,100451.56
2022-11-20T17:24:11.812Z,100452.41
2022-11-20T17:27:15.477Z,100454.75
2022-11-20T17:30:19.303Z,100458.69
2022-11-20T17:33:22.902Z,100465.28
2022-11-20T17:36:26.486Z,100466.97
2022-11-20T17:39:31.566Z,100464.41
2022-11-20T17:42:36.961Z,100464.78
2022-11-20T17:45:40.710Z,100455.47
2022-11-20T17:48:45.531Z,100453.91
2022-11-20T17:51:49.145Z,100451.19
2022-11-20T17:54:55.890Z,100450.84
2022-11-20T17:58:02.813Z,100452.34
2022-11-20T18:01:06.889Z,100454.56
2022-11-20T18:04:11.638Z,100453.88
2022-11-20T18:07:15.270Z,100450.78
2022-11-20T18:10:20.273Z,100453.50
2022-11-20T18:13:47.709Z,100452.16
2022-11-20T18:16:53.596Z,100453.50
2022-11-20T18:20:21.676Z,100450.13
2022-11-20T18:23:20.770Z,100449.63
2022-11-20T18:26:26.309Z,100447.22
2022-11-20T18:29:31.106Z,100440.47
2022-11-20T18:32:36.104Z,100441.31
2022-11-20T18:35:42.880Z,100441.34
2022-11-20T18:38:48.251Z,100442.88
2022-11-20T18:42:10.515Z,100443.00
2022-11-20T18:45:14.029Z,100441.63
2022-11-20T18:48:17.593Z,100443.69
2022-11-20T18:51:21.116Z,100444.31
2022-11-20T18:54:25.371Z,100439.22
2022-11-20T18:57:31.438Z,100431.94
2022-11-20T19:00:35.036Z,100430.06
2022-11-20T19:03:38.740Z,100436.50
2022-11-20T19:06:44.257Z,100424.66
2022-11-20T19:09:50.677Z,100424.56
2022-11-20T19:12:55.800Z,100412.78
2022-11-20T19:16:03.429Z,100409.38
2022-11-20T19:19:07.894Z,100406.88
2022-11-20T19:22:11.525Z,100404.56
2022-11-20T19:25:15.217Z,100402.38
2022-11-20T19:28:20.121Z,100400.53
2022-11-20T19:31:26.858Z,100394.41
2022-11-20T19:34:30.483Z,100389.94
2022-11-20T19:37:35.285Z,100392.97
2022-11-20T19:40:38.905Z,100392.31
2022-11-20T19:43:44.230Z,100392.03
2022-11-20T19:46:47.925Z,100386.28
2022-11-20T19:49:51.789Z,100380.50
2022-11-20T19:52:58.736Z,100385.50
2022-11-20T19:56:02.730Z,100381.81
2022-11-20T19:59:07.741Z,100374.81
2022-11-20T20:02:12.439Z,100370.16
2022-11-20T20:05:16.306Z,100366.28
2022-11-20T20:08:19.856Z,100360.78
2022-11-20T20:11:25.418Z,100352.78
2022-11-20T20:14:31.004Z,100354.16
2022-11-20T20:17:34.547Z,100355.22
2022-11-20T20:20:38.207Z,100350.78
2022-11-20T20:23:43.175Z,100349.59
2022-11-20T20:26:46.844Z,100347.59
2022-11-20T20:29:51.822Z,100355.31
2022-11-20T20:32:56.506Z,100356.69
2022-11-20T20:36:00.405Z,100348.53
2022-11-20T20:39:04.349Z,100347.47
2022-11-20T20:42:08.004Z,100346.94
2022-11-20T20:45:13.186Z,100339.50
2022-11-20T20:48:17.204Z,100335.13
2022-11-20T20:51:20.806Z,100338.47
2022-11-20T20:54:24.402Z,100334.72
2022-11-20T20:57:28.556Z,100340.56
2022-11-20T21:00:33.507Z,100328.41
2022-11-20T21:03:38.338Z,100325.47
2022-11-20T21:06:41.879Z,100324.47
2022-11-20T21:09:45.614Z,100321.69
2022-11-20T21:12:49.259Z,100319.66
2022-11-20T21:15:54.155Z,100319.66
2022-11-20T21:18:57.948Z,100323.19
2022-11-20T21:22:03.391Z,100331.13
2022-11-20T21:25:07.958Z,100320.72
2022-11-20T21:28:15.620Z,100319.56
2022-11-20T21:31:24.900Z,100314.69
2022-11-20T21:34:28.933Z,100308.94
2022-11-20T21:37:35.977Z,100319.09
2022-11-20T21:40:41.867Z,100307.16
2022-11-20T21:43:45.683Z,100300.78
2022-11-20T21:46:50.688Z,100308.66
2022-11-20T21:49:54.277Z,100304.81
2022-11-20T21:52:57.922Z,100299.91
